Time;durP1;ratioP1;P1;durP2;ratioP2;P2;SDS_P1;SDS_P2;PMS_P1;PMS_P2;Temp;Humidity;BMP_temperature;BMP_pressure;BME280_temperature;BME280_humidity;BME280_pressure;Samples;Min_cycle;Max_cycle;Signal;HPM_P1;HPM_P2
2022/04/22 00:02:19;;;;;;;8.52;4.65;;;10.60;99.90;;;;;;4981918;28;20060;-73
2022/04/22 00:04:45;;;;;;;9.52;4.75;;;10.70;99.90;;;;;;5006135;28;20454;-72
2022/04/22 00:07:12;;;;;;;9.25;4.82;;;10.70;99.90;;;;;;5031054;28;20188;-72
2022/04/22 00:09:38;;;;;;;10.27;5.05;;;10.60;99.90;;;;;;5027389;28;20045;-72
2022/04/22 00:12:04;;;;;;;10.85;5.68;;;10.50;99.90;;;;;;5030680;28;20041;-72
2022/04/22 00:14:30;;;;;;;9.18;5.15;;;10.40;99.90;;;;;;5032695;28;20142;-72
2022/04/22 00:16:55;;;;;;;8.70;5.50;;;10.40;99.90;;;;;;5018004;28;20052;-72
2022/04/22 00:19:21;;;;;;;10.75;5.80;;;10.40;99.90;;;;;;5029897;28;20065;-72
2022/04/22 00:21:48;;;;;;;11.88;5.90;;;10.30;99.90;;;;;;5032395;28;20560;-72
2022/04/22 00:24:15;;;;;;;13.40;6.85;;;10.20;99.90;;;;;;5023753;28;20195;-72
2022/04/22 00:26:41;;;;;;;11.07;6.80;;;10.30;99.90;;;;;;5031180;28;20051;-72
2022/04/22 00:29:07;;;;;;;11.07;6.38;;;10.30;99.90;;;;;;5033033;28;20044;-72
2022/04/22 00:31:33;;;;;;;12.02;7.03;;;10.20;99.90;;;;;;5032029;28;20123;-73
2022/04/22 00:33:59;;;;;;;13.60;7.47;;;10.40;99.90;;;;;;5029387;28;20040;-72
2022/04/22 00:36:25;;;;;;;11.88;6.75;;;10.30;99.90;;;;;;5033688;28;20052;-72
2022/04/22 00:38:51;;;;;;;11.02;6.68;;;10.30;99.90;;;;;;5029525;28;20410;-72
2022/04/22 00:41:17;;;;;;;12.25;7.00;;;10.20;99.90;;;;;;5008810;28;20077;-72
2022/04/22 00:43:45;;;;;;;12.60;7.38;;;10.10;99.90;;;;;;5011398;28;20087;-72
2022/04/22 00:46:12;;;;;;;13.07;7.93;;;10.30;99.90;;;;;;5007306;28;20150;-72
2022/04/22 00:48:38;;;;;;;13.13;8.75;;;10.20;99.90;;;;;;5007962;28;20049;-73
2022/04/22 00:51:08;;;;;;;13.82;8.25;;;10.10;99.90;;;;;;5012144;28;20037;-72
2022/04/22 00:53:35;;;;;;;12.98;7.45;;;10.10;99.90;;;;;;5010186;28;20128;-72
2022/04/22 00:56:06;;;;;;;13.32;7.40;;;10.00;99.90;;;;;;5008424;28;20042;-72
2022/04/22 00:58:35;;;;;;;13.90;8.25;;;10.00;99.90;;;;;;5009456;28;20627;-72
2022/04/22 01:01:01;;;;;;;14.15;8.88;;;10.00;99.90;;;;;;5012576;28;20048;-73
2022/04/22 01:03:28;;;;;;;15.30;9.23;;;10.10;99.90;;;;;;5009828;28;20123;-72
2022/04/22 01:11:27;;;;;;;15.38;9.27;;;10.00;99.90;;;;;;5007188;28;20132;-72
2022/04/22 01:13:54;;;;;;;14.80;9.32;;;9.90;99.90;;;;;;5008085;28;20049;-72
2022/04/22 01:16:19;;;;;;;15.10;10.48;;;9.80;99.90;;;;;;5011178;28;20045;-72
2022/04/22 01:18:45;;;;;;;15.57;10.40;;;9.80;99.90;;;;;;5014455;28;20045;-72
2022/04/22 01:21:11;;;;;;;14.52;9.68;;;9.90;99.90;;;;;;5008015;28;20548;-72
2022/04/22 01:23:37;;;;;;;17.95;9.43;;;9.70;99.90;;;;;;5008153;28;20041;-72
2022/04/22 01:26:03;;;;;;;17.85;9.68;;;9.80;99.90;;;;;;5011534;28;20045;-72
2022/04/22 01:28:29;;;;;;;18.33;10.18;;;9.80;99.90;;;;;;5009304;28;20663;-72
2022/04/22 01:30:57;;;;;;;17.55;10.68;;;9.80;99.90;;;;;;5008672;28;20033;-72
2022/04/22 01:33:23;;;;;;;16.35;10.88;;;9.60;99.90;;;;;;5009828;28;20147;-72
2022/04/22 01:35:49;;;;;;;18.92;10.98;;;9.60;99.90;;;;;;5014125;28;20053;-73
2022/04/22 01:38:15;;;;;;;19.83;11.27;;;9.60;99.90;;;;;;5013070;28;20033;-73
2022/04/22 01:40:41;;;;;;;19.23;11.82;;;9.50;99.90;;;;;;5009547;28;20041;-72
2022/04/22 01:43:08;;;;;;;19.90;12.13;;;9.60;99.90;;;;;;5036238;28;20159;-72
2022/04/22 01:45:34;;;;;;;19.83;11.43;;;9.40;99.90;;;;;;5035159;28;20048;-72
2022/04/22 01:48:00;;;;;;;20.45;12.82;;;9.50;99.90;;;;;;5030383;28;20052;-72
2022/04/22 01:50:26;;;;;;;18.65;11.15;;;9.40;99.90;;;;;;5036605;28;20047;-72
2022/04/22 01:52:52;;;;;;;21.42;11.68;;;9.40;99.90;;;;;;5030544;28;20057;-72
2022/04/22 01:55:19;;;;;;;20.13;12.05;;;9.40;99.90;;;;;;5014495;28;20252;-72
2022/04/22 01:57:45;;;;;;;17.40;11.10;;;9.30;99.90;;;;;;5028403;28;20556;-72
2022/04/22 02:00:11;;;;;;;22.30;11.40;;;9.30;99.90;;;;;;5030935;28;20045;-72
2022/04/22 02:02:37;;;;;;;20.55;12.13;;;9.30;99.90;;;;;;5033228;28;20041;-72
2022/04/22 02:05:05;;;;;;;20.27;12.55;;;9.30;99.90;;;;;;5030353;28;20044;-72
2022/04/22 02:07:31;;;;;;;17.73;11.05;;;9.20;99.90;;;;;;5030831;28;20790;-72
2022/04/22 02:09:57;;;;;;;19.70;11.70;;;9.10;99.90;;;;;;5029485;28;20052;-72
2022/04/22 02:12:22;;;;;;;20.15;12.40;;;9.00;99.90;;;;;;5028770;28;20448;-72
2022/04/22 02:14:48;;;;;;;23.10;13.25;;;9.00;99.90;;;;;;5025035;28;20911;-72
2022/04/22 02:17:14;;;;;;;22.85;14.23;;;9.00;99.90;;;;;;5028555;28;20044;-72
2022/04/22 02:19:40;;;;;;;21.65;13.48;;;8.90;99.90;;;;;;5032462;28;20072;-72
2022/04/22 02:22:07;;;;;;;25.50;12.18;;;8.90;99.90;;;;;;5031882;28;20048;-72
2022/04/22 02:24:33;;;;;;;23.88;14.38;;;8.80;99.90;;;;;;5027289;28;20044;-72
2022/04/22 02:29:43;;;;;;;21.40;13.45;;;8.80;99.90;;;;;;5028170;28;20752;-72
2022/04/22 02:32:09;;;;;;;21.63;12.98;;;8.70;99.90;;;;;;4992656;28;20094;-73
2022/04/22 02:34:35;;;;;;;22.05;15.43;;;8.70;99.90;;;;;;5010873;28;20393;-72
2022/04/22 02:37:01;;;;;;;25.95;14.10;;;8.80;99.90;;;;;;5028566;28;20041;-72
2022/04/22 02:39:27;;;;;;;23.63;15.15;;;8.80;99.90;;;;;;5030397;28;20045;-72
2022/04/22 02:47:27;;;;;;;27.50;15.88;;;8.70;99.90;;;;;;5034217;28;20431;-72
2022/04/22 02:49:53;;;;;;;25.13;14.55;;;8.60;99.90;;;;;;5009428;28;20059;-72
2022/04/22 02:52:18;;;;;;;26.33;15.27;;;8.70;99.90;;;;;;5008021;28;20787;-72
2022/04/22 02:55:02;;;;;;;24.45;15.07;;;8.70;99.90;;;;;;5032513;28;20041;-72
2022/04/22 02:57:28;;;;;;;;;;;8.60;99.90;;;;;;5025997;28;20044;-72
2022/04/22 02:59:54;;;;;;;21.42;14.35;;;8.50;99.90;;;;;;5026041;28;19973;-72
2022/04/22 03:02:20;;;;;;;23.73;14.98;;;8.50;99.90;;;;;;5012893;28;20140;-72
2022/04/22 03:04:47;;;;;;;24.00;14.75;;;8.40;99.90;;;;;;5010297;28;20760;-72
2022/04/22 03:07:13;;;;;;;22.75;14.00;;;8.40;99.90;;;;;;5025187;28;20098;-72
2022/04/22 03:09:39;;;;;;;24.00;14.85;;;8.40;99.90;;;;;;5012720;28;20546;-72
2022/04/22 03:12:06;;;;;;;22.42;15.18;;;8.40;99.90;;;;;;5025673;28;20051;-72
2022/04/22 03:14:32;;;;;;;28.33;15.55;;;8.60;99.90;;;;;;5010026;28;20048;-72
2022/04/22 03:16:58;;;;;;;25.77;14.25;;;8.40;99.90;;;;;;5033962;28;20067;-72
2022/04/22 03:19:24;;;;;;;27.05;15.30;;;8.40;99.90;;;;;;5030831;28;20040;-72
2022/04/22 03:21:50;;;;;;;21.50;14.30;;;8.50;99.90;;;;;;5011702;28;20458;-74
2022/04/22 03:24:15;;;;;;;22.80;14.63;;;8.50;99.90;;;;;;5032149;28;20044;-73
2022/04/22 03:26:41;;;;;;;21.13;13.02;;;8.60;99.90;;;;;;5013182;28;20040;-73
2022/04/22 03:29:07;;;;;;;24.23;14.75;;;8.60;99.90;;;;;;5034954;28;20093;-73
2022/04/22 03:31:33;;;;;;;21.42;12.82;;;8.60;99.90;;;;;;5035974;28;20526;-73
2022/04/22 03:33:59;;;;;;;23.45;13.65;;;8.40;99.90;;;;;;5032377;28;20051;-73
2022/04/22 03:36:24;;;;;;;21.20;12.80;;;8.40;99.90;;;;;;5038656;28;20040;-73
2022/04/22 03:38:50;;;;;;;20.75;12.02;;;8.40;99.90;;;;;;5015668;28;20052;-73
2022/04/22 03:41:16;;;;;;;21.13;11.70;;;8.30;99.90;;;;;;5029517;28;20139;-73
2022/04/22 03:43:42;;;;;;;19.83;12.18;;;8.30;99.90;;;;;;4996050;28;20040;-73
2022/04/22 03:46:08;;;;;;;22.15;12.45;;;8.40;99.90;;;;;;5035148;28;20048;-73
2022/04/22 03:48:34;;;;;;;20.15;12.35;;;8.30;99.90;;;;;;5032027;28;20060;-73
2022/04/22 03:51:00;;;;;;;24.17;11.98;;;8.30;99.90;;;;;;5013883;28;20047;-73
2022/04/22 03:53:25;;;;;;;17.33;11.13;;;8.40;99.90;;;;;;5032011;28;20064;-73
2022/04/22 03:55:51;;;;;;;22.02;11.02;;;8.30;99.90;;;;;;5016427;28;20052;-73
2022/04/22 03:58:17;;;;;;;19.60;11.52;;;8.30;99.90;;;;;;5029884;28;20106;-73
2022/04/22 04:00:44;;;;;;;20.10;11.48;;;8.20;99.90;;;;;;5029144;28;20469;-73
2022/04/22 04:03:13;;;;;;;20.55;12.43;;;8.30;99.90;;;;;;5017053;28;20044;-73
2022/04/22 04:05:40;;;;;;;15.82;11.00;;;8.30;99.90;;;;;;5030257;28;20045;-73
2022/04/22 04:08:10;;;;;;;16.42;9.57;;;8.30;99.90;;;;;;5010802;28;20154;-73
2022/04/22 04:16:05;;;;;;;19.05;9.40;;;8.40;99.90;;;;;;5030634;28;20049;-73
2022/04/22 04:18:37;;;;;;;16.20;10.05;;;8.40;99.90;;;;;;5027478;28;20056;-73
2022/04/22 04:23:50;;;;;;;18.13;9.13;;;8.40;99.90;;;;;;5030036;28;20049;-73
2022/04/22 04:26:18;;;;;;;15.85;8.75;;;8.40;99.90;;;;;;5033074;28;20128;-73
2022/04/22 04:28:47;;;;;;;15.52;8.82;;;8.40;99.90;;;;;;5015310;28;21668;-73
2022/04/22 04:31:15;;;;;;;16.98;8.32;;;8.50;99.90;;;;;;5031954;28;20076;-72
2022/04/22 04:33:42;;;;;;;16.20;8.70;;;8.50;99.90;;;;;;5030491;28;20064;-73
2022/04/22 04:36:10;;;;;;;14.85;8.07;;;8.50;99.90;;;;;;5038332;28;20424;-73
2022/04/22 04:38:42;;;;;;;13.50;7.28;;;8.50;99.90;;;;;;5028655;28;20056;-73
2022/04/22 04:41:09;;;;;;;14.65;7.57;;;8.50;99.90;;;;;;5028431;28;20041;-72
2022/04/22 04:43:38;;;;;;;14.70;7.32;;;8.50;99.90;;;;;;5032718;28;20131;-73
2022/04/22 04:46:04;;;;;;;13.50;6.93;;;8.50;99.90;;;;;;5012509;28;20126;-73
2022/04/22 04:48:30;;;;;;;13.45;7.45;;;8.50;99.90;;;;;;4998924;28;20753;-73
2022/04/22 04:50:56;;;;;;;14.23;7.68;;;8.50;99.90;;;;;;5027663;28;20052;-73
2022/04/22 04:53:25;;;;;;;13.73;7.25;;;8.60;99.90;;;;;;5029706;28;20057;-73
2022/04/22 04:55:52;;;;;;;12.88;6.95;;;8.60;99.90;;;;;;5020125;28;20052;-72
2022/04/22 04:58:19;;;;;;;13.70;7.80;;;8.60;99.90;;;;;;5028926;28;20049;-73
2022/04/22 05:00:45;;;;;;;15.13;7.00;;;8.60;99.90;;;;;;5009524;28;20825;-73
2022/04/22 05:03:11;;;;;;;13.38;6.85;;;8.60;99.90;;;;;;4991734;28;20060;-74
2022/04/22 05:05:38;;;;;;;14.93;6.40;;;8.60;99.90;;;;;;5011597;28;20040;-73
2022/04/22 05:08:05;;;;;;;12.48;6.22;;;8.60;99.90;;;;;;5027997;28;20514;-73
2022/04/22 05:10:32;;;;;;;11.50;6.10;;;8.60;99.90;;;;;;5026200;28;20052;-73
2022/04/22 05:13:03;;;;;;;10.30;6.05;;;8.60;99.90;;;;;;5027365;28;20033;-73
2022/04/22 05:15:31;;;;;;;14.75;6.10;;;8.60;99.90;;;;;;5030352;28;20730;-72
2022/04/22 05:17:58;;;;;;;12.52;6.53;;;8.70;99.90;;;;;;5030515;28;20044;-73
2022/04/22 05:20:27;;;;;;;10.23;5.50;;;8.70;99.90;;;;;;5029637;28;20902;-73
2022/04/22 05:22:54;;;;;;;12.45;5.72;;;8.70;99.90;;;;;;5008313;28;20928;-73
2022/04/22 05:25:20;;;;;;;10.98;5.55;;;8.70;99.90;;;;;;5025610;28;20040;-73
2022/04/22 05:27:47;;;;;;;10.48;5.20;;;8.70;99.90;;;;;;4990158;28;20057;-73
2022/04/22 05:33:03;;;;;;;10.30;5.78;;;8.70;99.90;;;;;;5030524;28;20044;-73
2022/04/22 05:35:29;;;;;;;11.32;5.75;;;8.70;99.90;;;;;;5013262;28;20063;-73
2022/04/22 05:37:57;;;;;;;11.73;5.32;;;8.70;99.90;;;;;;5010479;28;20055;-73
2022/04/22 05:40:31;;;;;;;9.00;5.25;;;8.70;99.90;;;;;;5009722;28;20701;-73
2022/04/22 05:42:58;;;;;;;11.77;5.30;;;8.70;99.90;;;;;;5009895;28;20083;-73
2022/04/22 05:45:25;;;;;;;10.45;5.50;;;8.70;99.90;;;;;;5024145;28;20151;-73
2022/04/22 05:47:51;;;;;;;10.80;5.88;;;8.90;99.90;;;;;;5012649;28;20240;-73
2022/04/22 05:50:18;;;;;;;10.57;4.85;;;8.80;99.90;;;;;;5029278;28;20037;-73
2022/04/22 05:52:44;;;;;;;11.00;5.15;;;8.80;99.90;;;;;;5026615;28;20051;-73
2022/04/22 05:55:13;;;;;;;12.63;5.80;;;8.90;99.90;;;;;;5027255;28;20080;-72
2022/04/22 05:57:39;;;;;;;8.85;5.22;;;9.00;99.90;;;;;;5026323;28;20048;-73
2022/04/22 06:00:12;;;;;;;11.73;4.75;;;9.00;99.90;;;;;;5029743;28;20044;-73
2022/04/22 06:02:42;;;;;;;9.60;4.82;;;9.20;99.90;;;;;;5027493;28;20048;-73
2022/04/22 06:05:12;;;;;;;8.02;4.60;;;9.20;99.90;;;;;;5027263;28;20150;-73
2022/04/22 06:07:38;;;;;;;11.05;5.38;;;9.40;99.90;;;;;;5012568;28;20057;-73
2022/04/22 06:12:50;;;;;;;11.15;4.88;;;9.40;99.90;;;;;;5025764;28;20342;-73
2022/04/22 06:15:16;;;;;;;9.52;4.40;;;10.10;99.90;;;;;;5026872;28;20045;-73
2022/04/22 06:17:42;;;;;;;9.73;4.50;;;10.30;99.90;;;;;;4993417;28;22307;-73
2022/04/22 06:20:08;;;;;;;9.88;4.68;;;10.40;99.90;;;;;;4987554;28;20135;-73
2022/04/22 06:22:34;;;;;;;8.15;3.83;;;10.40;99.90;;;;;;5010981;28;20071;-73
2022/04/22 06:25:00;;;;;;;9.85;4.90;;;10.30;99.90;;;;;;5011174;28;20041;-73
2022/04/22 06:27:28;;;;;;;8.35;4.65;;;10.40;99.90;;;;;;5023790;28;20045;-73
2022/04/22 06:29:55;;;;;;;8.98;4.93;;;10.40;99.90;;;;;;5031466;28;20087;-74
2022/04/22 06:32:23;;;;;;;10.85;4.45;;;10.10;99.90;;;;;;5012425;28;20079;-73
2022/04/22 06:34:50;;;;;;;9.98;4.85;;;10.30;99.90;;;;;;5027954;28;20213;-73
2022/04/22 06:37:17;;;;;;;10.88;4.68;;;10.60;99.90;;;;;;5024731;28;20135;-73
2022/04/22 06:47:57;;;;;;;7.68;4.63;;;11.00;99.90;;;;;;5028594;28;20048;-73
2022/04/22 06:50:23;;;;;;;12.00;4.97;;;10.50;99.90;;;;;;5029764;28;20590;-73
2022/04/22 06:52:50;;;;;;;10.50;4.53;;;10.60;99.90;;;;;;5026738;28;20059;-73
2022/04/22 06:55:17;;;;;;;13.35;4.93;;;10.40;99.90;;;;;;5007422;28;20049;-73
2022/04/22 06:57:51;;;;;;;15.43;5.40;;;10.50;99.90;;;;;;5021385;28;20060;-73
2022/04/22 07:00:18;;;;;;;11.00;4.68;;;10.60;99.90;;;;;;5024039;28;20039;-73
2022/04/22 07:02:47;;;;;;;11.55;4.72;;;10.70;99.90;;;;;;5028773;28;20864;-73
2022/04/22 07:05:14;;;;;;;9.52;5.00;;;10.50;99.90;;;;;;5023757;28;20037;-73
2022/04/22 07:07:40;;;;;;;11.88;4.75;;;10.70;99.90;;;;;;5026920;28;20033;-73
2022/04/22 07:10:07;;;;;;;9.73;4.75;;;11.60;99.90;;;;;;5015819;28;20040;-73
2022/04/22 07:12:33;;;;;;;7.82;4.40;;;11.90;99.90;;;;;;5029909;28;20507;-74
2022/04/22 07:15:06;;;;;;;8.93;4.60;;;11.90;99.90;;;;;;5006587;28;20048;-73
2022/04/22 07:17:33;;;;;;;10.65;4.60;;;12.00;99.90;;;;;;5029935;28;20045;-73
2022/04/22 07:20:10;;;;;;;8.93;3.90;;;12.10;99.90;;;;;;5027953;28;20102;-73
2022/04/22 07:22:37;;;;;;;10.43;4.50;;;12.00;99.90;;;;;;5026784;28;20049;-73
2022/04/22 07:25:05;;;;;;;6.78;3.70;;;12.40;99.90;;;;;;5009174;28;20102;-74
2022/04/22 07:27:34;;;;;;;9.00;4.60;;;12.10;99.90;;;;;;5025970;28;20102;-73
2022/04/22 07:30:00;;;;;;;13.95;5.40;;;12.20;99.90;;;;;;5027132;28;20044;-73
2022/04/22 07:32:29;;;;;;;10.90;4.88;;;12.90;99.90;;;;;;5027375;28;20040;-73
2022/04/22 07:34:55;;;;;;;8.10;4.22;;;12.80;99.90;;;;;;5029628;28;20878;-73
2022/04/22 07:37:22;;;;;;;8.23;4.25;;;12.10;99.90;;;;;;5030075;28;20131;-74
2022/04/22 07:39:49;;;;;;;7.93;4.20;;;12.30;99.90;;;;;;5016489;28;20603;-74
2022/04/22 07:42:21;;;;;;;10.82;4.57;;;12.30;99.90;;;;;;5028694;28;20637;-73
2022/04/22 07:47:36;;;;;;;8.68;4.55;;;12.40;99.90;;;;;;5021145;28;20141;-74
2022/04/22 07:50:07;;;;;;;11.80;4.53;;;13.00;99.90;;;;;;5023603;28;20059;-74
2022/04/22 07:52:35;;;;;;;8.65;5.00;;;12.70;99.90;;;;;;5022990;28;20052;-73
2022/04/22 07:55:01;;;;;;;9.80;4.75;;;12.80;99.90;;;;;;5012661;28;20821;-73
2022/04/22 07:57:28;;;;;;;7.35;4.35;;;12.80;99.90;;;;;;5015695;28;20056;-74
2022/04/22 07:59:54;;;;;;;9.38;4.72;;;12.70;99.90;;;;;;5000910;28;20604;-74
2022/04/22 08:02:20;;;;;;;10.52;4.68;;;12.90;99.90;;;;;;5003435;28;20675;-74
2022/04/22 08:04:46;;;;;;;10.07;4.68;;;12.80;99.90;;;;;;4999041;28;20055;-74
2022/04/22 08:07:12;;;;;;;10.23;4.68;;;13.10;99.90;;;;;;4990242;28;20046;-74
2022/04/22 08:09:39;;;;;;;8.63;4.50;;;13.00;99.90;;;;;;4993525;28;20098;-73
2022/04/22 08:12:08;;;;;;;9.73;4.35;;;13.40;99.90;;;;;;5001180;28;20891;-73
2022/04/22 08:14:34;;;;;;;9.60;4.78;;;13.10;99.90;;;;;;5009591;28;20076;-73
2022/04/22 08:17:01;;;;;;;10.18;4.65;;;12.80;99.90;;;;;;5000974;28;20894;-73
2022/04/22 08:19:27;;;;;;;9.15;4.47;;;13.00;99.90;;;;;;4994418;28;20069;-74
2022/04/22 08:21:53;;;;;;;7.90;4.47;;;13.30;99.90;;;;;;5003153;28;20890;-73
2022/04/22 08:24:18;;;;;;;8.88;4.40;;;13.70;99.90;;;;;;5007050;28;20036;-73
2022/04/22 08:26:45;;;;;;;8.63;4.00;;;13.60;99.90;;;;;;5015196;28;20680;-74
2022/04/22 08:29:11;;;;;;;8.63;4.03;;;13.80;99.30;;;;;;5010558;28;20056;-74
2022/04/22 08:31:37;;;;;;;8.20;4.32;;;13.60;99.90;;;;;;5016512;28;20091;-74
2022/04/22 08:34:03;;;;;;;7.15;3.67;;;14.00;99.90;;;;;;5011335;28;20242;-73
2022/04/22 08:36:30;;;;;;;8.68;4.30;;;13.60;99.90;;;;;;4976051;28;20331;-74
2022/04/22 08:38:59;;;;;;;8.45;3.95;;;13.80;99.90;;;;;;5007759;28;20109;-74
2022/04/22 08:41:26;;;;;;;17.40;4.43;;;14.10;99.90;;;;;;5011211;28;20061;-74
2022/04/22 08:43:58;;;;;;;9.27;4.10;;;14.00;99.80;;;;;;4992451;28;20141;-74
2022/04/22 08:51:58;;;;;;;7.65;3.70;;;14.50;99.20;;;;;;5005448;28;20087;-74
2022/04/22 08:54:27;;;;;;;10.35;4.07;;;14.50;95.30;;;;;;4991127;28;20397;-74
2022/04/22 08:56:57;;;;;;;7.93;3.63;;;14.50;91.90;;;;;;5003882;28;20057;-74
2022/04/22 08:59:25;;;;;;;6.47;3.28;;;14.70;96.60;;;;;;5005265;28;20104;-75
2022/04/22 09:01:52;;;;;;;8.07;3.30;;;14.50;99.90;;;;;;5009009;28;20079;-74
2022/04/22 09:04:19;;;;;;;12.30;3.63;;;14.40;99.50;;;;;;5014061;28;20056;-74
2022/04/22 09:06:50;;;;;;;5.53;3.10;;;14.60;92.40;;;;;;5005678;28;20043;-74
2022/04/22 09:09:18;;;;;;;6.43;2.90;;;14.80;85.90;;;;;;5004809;28;20859;-74
2022/04/22 09:11:45;;;;;;;7.57;3.70;;;14.80;84.70;;;;;;4992445;28;20474;-74
2022/04/22 09:14:20;;;;;;;5.95;3.03;;;15.20;80.10;;;;;;4987249;28;20167;-73
2022/04/22 09:16:47;;;;;;;8.65;3.22;;;14.70;85.30;;;;;;4997830;28;20060;-74
2022/04/22 09:19:13;;;;;;;8.85;3.45;;;15.30;84.10;;;;;;5003642;28;20052;-74
2022/04/22 09:21:39;;;;;;;10.05;3.33;;;15.20;85.50;;;;;;5007513;28;20561;-73
2022/04/22 09:24:15;;;;;;;6.57;3.22;;;14.90;77.40;;;;;;5009681;28;20506;-73
2022/04/22 09:26:41;;;;;;;8.38;3.25;;;14.70;86.60;;;;;;5014510;28;20608;-74
2022/04/22 09:29:10;;;;;;;9.63;3.20;;;15.00;80.20;;;;;;4986369;28;20057;-73
2022/04/22 09:31:49;;;;;;;6.50;3.33;;;14.90;92.60;;;;;;5008083;28;20053;-73
2022/04/22 09:34:31;;;;;;;5.78;3.20;;;15.40;86.00;;;;;;5005768;28;20411;-73
2022/04/22 09:42:55;;;;;;;7.40;3.40;;;15.20;83.70;;;;;;5002474;28;20056;-73
2022/04/22 09:45:21;;;;;;;7.00;3.63;;;15.50;78.90;;;;;;4988860;28;20072;-73
2022/04/22 09:47:58;;;;;;;8.77;3.30;;;15.60;85.20;;;;;;4987693;28;20140;-73
2022/04/22 09:50:42;;;;;;;7.95;3.47;;;15.90;78.40;;;;;;4982613;28;20043;-73
2022/04/22 09:53:13;;;;;;;7.13;2.88;;;15.90;76.70;;;;;;5001746;28;20045;-73
2022/04/22 09:55:55;;;;;;;8.93;3.33;;;15.90;80.10;;;;;;5016281;28;20908;-73
2022/04/22 09:58:26;;;;;;;8.45;4.03;;;16.00;79.40;;;;;;5005842;28;20411;-73
2022/04/22 10:01:01;;;;;;;8.20;3.28;;;16.00;95.20;;;;;;4990243;28;20048;-74
2022/04/22 10:03:32;;;;;;;10.45;3.40;;;16.60;75.00;;;;;;5013228;28;20072;-73
2022/04/22 10:05:59;;;;;;;7.47;3.83;;;17.40;77.40;;;;;;5006386;28;20107;-73
2022/04/22 10:08:28;;;;;;;7.72;3.20;;;17.10;73.50;;;;;;4999440;28;20059;-74
2022/04/22 10:11:19;;;;;;;10.15;3.35;;;16.50;68.20;;;;;;5000393;28;20649;-73
2022/04/22 10:13:46;;;;;;;7.95;3.30;;;16.20;68.60;;;;;;4999622;28;20155;-73
2022/04/22 10:16:13;;;;;;;8.50;3.03;;;17.00;69.20;;;;;;5000459;28;20160;-74
2022/04/22 10:18:41;;;;;;;8.90;3.42;;;16.80;70.90;;;;;;5017315;28;20267;-73
2022/04/22 10:21:08;;;;;;;6.47;3.20;;;16.60;78.60;;;;;;5020657;28;20160;-74
2022/04/22 10:23:36;;;;;;;7.75;3.15;;;16.70;71.20;;;;;;5023290;28;20048;-73
2022/04/22 10:26:04;;;;;;;8.25;3.20;;;16.50;70.90;;;;;;5020606;28;20133;-74
2022/04/22 10:28:31;;;;;;;7.80;3.40;;;16.80;70.10;;;;;;5005779;28;20055;-73
2022/04/22 10:31:00;;;;;;;8.52;3.60;;;17.20;80.20;;;;;;4998544;28;20121;-74
2022/04/22 10:33:27;;;;;;;10.43;3.50;;;16.90;67.60;;;;;;5003390;28;20087;-73
2022/04/22 10:36:00;;;;;;;10.25;3.55;;;16.60;70.90;;;;;;5023701;28;20077;-73
2022/04/22 10:38:33;;;;;;;7.05;3.55;;;16.90;72.20;;;;;;5023171;28;20131;-73
2022/04/22 10:41:03;;;;;;;6.63;3.10;;;16.80;71.20;;;;;;5015388;28;20119;-73
2022/04/22 10:43:29;;;;;;;8.32;3.38;;;17.10;72.50;;;;;;5003561;28;20056;-73
2022/04/22 10:48:41;;;;;;;8.50;3.35;;;17.00;70.60;;;;;;5020874;28;20052;-73
2022/04/22 10:51:11;;;;;;;13.25;3.60;;;16.70;68.30;;;;;;5015573;28;20048;-73
2022/04/22 10:53:46;;;;;;;9.15;3.50;;;16.80;73.80;;;;;;5001301;28;20768;-74
2022/04/22 10:56:28;;;;;;;8.85;3.28;;;16.40;66.20;;;;;;5017254;28;20653;-74
2022/04/22 10:59:32;;;;;;;8.25;3.75;;;16.80;67.20;;;;;;4996310;28;20048;-74
2022/04/22 11:01:58;;;;;;;6.23;3.10;;;16.90;66.00;;;;;;4976043;28;20053;-73
2022/04/22 11:04:28;;;;;;;7.03;3.22;;;16.90;69.10;;;;;;5016141;28;20049;-74
2022/04/22 11:06:56;;;;;;;7.57;3.50;;;17.60;71.70;;;;;;4999436;28;20048;-75
2022/04/22 11:09:31;;;;;;;8.98;3.55;;;17.50;70.40;;;;;;5002145;28;20060;-73
2022/04/22 11:11:58;;;;;;;6.30;3.45;;;17.30;67.10;;;;;;5016516;28;20124;-74
2022/04/22 11:14:26;;;;;;;8.88;4.05;;;17.00;65.20;;;;;;5017858;28;20575;-75
2022/04/22 11:17:21;;;;;;;8.40;3.45;;;16.80;64.40;;;;;;5015681;28;21264;-74
2022/04/22 11:19:57;;;;;;;9.05;4.10;;;17.10;67.50;;;;;;5004623;28;20703;-74
2022/04/22 11:22:58;;;;;;;10.43;4.35;;;17.20;67.30;;;;;;5018978;28;20578;-73
2022/04/22 11:25:25;;;;;;;10.10;3.22;;;17.90;67.80;;;;;;5025686;28;20044;-73
2022/04/22 11:27:54;;;;;;;7.32;3.40;;;18.00;68.40;;;;;;5003199;28;20044;-74
2022/04/22 11:30:19;;;;;;;7.03;3.42;;;17.90;65.50;;;;;;4997956;28;20045;-74
2022/04/22 11:32:48;;;;;;;8.93;3.72;;;17.40;65.80;;;;;;5022002;28;20090;-74
2022/04/22 11:35:22;;;;;;;7.03;3.88;;;17.10;67.10;;;;;;5000975;28;20923;-74
2022/04/22 11:38:00;;;;;;;8.65;3.80;;;17.10;64.50;;;;;;5018127;28;20057;-73
2022/04/22 11:40:26;;;;;;;10.20;4.07;;;17.60;64.70;;;;;;5027424;28;20087;-74
2022/04/22 11:42:54;;;;;;;9.63;4.28;;;17.80;64.50;;;;;;5016818;28;20060;-75
2022/04/22 11:45:21;;;;;;;8.13;3.95;;;17.90;68.10;;;;;;5024888;28;20107;-75
2022/04/22 11:47:47;;;;;;;9.43;4.00;;;18.00;68.30;;;;;;5005350;28;20065;-74
2022/04/22 11:50:24;;;;;;;8.55;3.80;;;18.10;65.80;;;;;;5003080;28;20052;-74
2022/04/22 11:52:56;;;;;;;9.02;3.97;;;17.80;62.60;;;;;;5018144;28;20057;-75
2022/04/22 11:55:22;;;;;;;11.77;4.10;;;17.80;67.00;;;;;;5020501;28;20503;-75
2022/04/22 11:57:49;;;;;;;8.82;4.30;;;17.40;65.10;;;;;;5018191;28;20616;-75
2022/04/22 12:05:52;;;;;;;14.30;4.97;;;17.70;64.00;;;;;;5021487;28;20049;-74
2022/04/22 12:08:18;;;;;;;8.57;4.70;;;17.20;67.40;;;;;;5008156;28;20048;-75
2022/04/22 12:10:46;;;;;;;9.07;4.55;;;17.70;69.10;;;;;;5005388;28;20264;-75
2022/04/22 12:13:16;;;;;;;8.10;4.60;;;17.70;66.50;;;;;;5022170;28;20055;-74
2022/04/22 12:15:48;;;;;;;8.90;5.28;;;18.00;70.10;;;;;;5024037;28;20057;-75
2022/04/22 12:18:32;;;;;;;10.80;4.78;;;18.90;68.60;;;;;;5020034;28;20508;-74
2022/04/22 12:20:58;;;;;;;8.38;5.43;;;18.50;66.30;;;;;;5019421;28;20530;-74
2022/04/22 12:23:35;;;;;;;8.18;4.80;;;18.10;63.40;;;;;;5026390;28;20051;-75
2022/04/22 12:26:01;;;;;;;9.02;5.00;;;18.30;66.30;;;;;;5018923;28;21019;-74
2022/04/22 12:28:28;;;;;;;9.32;5.32;;;18.50;68.70;;;;;;5020289;28;20056;-73
2022/04/22 12:30:54;;;;;;;12.73;5.97;;;18.80;68.70;;;;;;5024462;28;20147;-74
2022/04/22 12:33:25;;;;;;;8.82;5.40;;;18.50;65.40;;;;;;5000932;28;20048;-74
2022/04/22 12:36:02;;;;;;;12.13;5.63;;;18.00;66.30;;;;;;5005000;28;20060;-75
2022/04/22 12:38:31;;;;;;;10.25;5.10;;;17.60;64.50;;;;;;5002036;28;20447;-75
2022/04/22 12:40:57;;;;;;;11.13;5.63;;;17.70;65.30;;;;;;4982666;28;20048;-75
2022/04/22 12:43:27;;;;;;;10.38;5.75;;;18.70;67.20;;;;;;5018161;28;20596;-74
2022/04/22 12:54:21;;;;;;;10.93;5.78;;;17.40;65.90;;;;;;4997622;28;20239;-74
2022/04/22 12:56:52;;;;;;;12.30;5.60;;;17.50;65.60;;;;;;5000937;28;20090;-75
2022/04/22 12:59:20;;;;;;;9.52;5.53;;;18.20;66.40;;;;;;5013213;28;20178;-75
2022/04/22 13:01:48;;;;;;;10.57;5.55;;;18.80;69.40;;;;;;4977529;28;20143;-76
2022/04/22 13:04:23;;;;;;;10.45;5.43;;;18.60;70.70;;;;;;4986440;28;20099;-75
2022/04/22 13:06:50;;;;;;;12.02;5.88;;;18.60;68.70;;;;;;5013376;28;20045;-75
2022/04/22 13:09:18;;;;;;;11.73;5.68;;;18.20;66.40;;;;;;5004388;28;20048;-74
2022/04/22 13:11:44;;;;;;;10.32;5.60;;;18.20;65.40;;;;;;5015092;28;20036;-75
2022/04/22 13:14:15;;;;;;;8.85;5.70;;;17.80;68.60;;;;;;4993625;28;20048;-75
2022/04/22 13:16:41;;;;;;;10.85;6.40;;;17.10;66.90;;;;;;5030279;28;20062;-75
2022/04/22 13:19:06;;;;;;;16.42;6.13;;;17.30;71.60;;;;;;5021005;28;20045;-76
2022/04/22 13:21:32;;;;;;;18.63;6.57;;;17.70;68.40;;;;;;5013217;28;20507;-75
2022/04/22 13:23:58;;;;;;;11.10;6.05;;;18.20;70.40;;;;;;5023888;28;20045;-74
2022/04/22 13:26:25;;;;;;;12.60;6.88;;;17.70;69.10;;;;;;5024920;28;20075;-75
2022/04/22 13:28:54;;;;;;;11.07;6.30;;;18.20;69.60;;;;;;5031138;28;20117;-75
2022/04/22 13:31:19;;;;;;;15.98;6.68;;;18.20;66.90;;;;;;5026511;28;20079;-75
2022/04/22 13:33:45;;;;;;;17.02;6.43;;;18.70;66.90;;;;;;5006858;28;20072;-74
2022/04/22 13:36:11;;;;;;;15.23;5.85;;;18.40;67.60;;;;;;4971715;28;20056;-72
2022/04/22 13:38:38;;;;;;;14.25;6.05;;;17.90;67.00;;;;;;4990660;28;20129;-72
2022/04/22 13:41:05;;;;;;;16.85;6.30;;;17.60;72.60;;;;;;4997372;28;20338;-72
2022/04/22 13:43:32;;;;;;;16.08;6.22;;;17.50;71.20;;;;;;5019034;28;20100;-73
2022/04/22 13:54:32;;;;;;;12.07;6.00;;;17.20;71.20;;;;;;5024559;28;20076;-73
2022/04/22 13:56:58;;;;;;;10.23;6.07;;;17.50;71.30;;;;;;5029519;28;20842;-73
2022/04/22 13:59:24;;;;;;;11.35;6.03;;;17.40;71.70;;;;;;5028943;28;20151;-73
2022/04/22 14:01:50;;;;;;;13.07;6.30;;;17.70;71.80;;;;;;5024941;28;20049;-72
2022/04/22 14:04:15;;;;;;;12.32;6.00;;;17.90;70.50;;;;;;5029044;28;20735;-72